CheckWX is a tool to help pilots better visualize weather data.  It is not intended as a substitute for an official pre-flight weather briefing.

16:12:16 UTC

YTNK TAF
Tennant Creek Airport
Tennant Creek, Australia
TAF YTNK 221247Z 2214/2302 10008KT CAVOK FM222300 10014KT CAVOK

Jul-22@
14:00 UTC

Jul-22 @ 14:00 UTC

Jul-22@
23:00 UTC

Jul-22 @ 23:00 UTC

TAF YTNK 221247Z 2214/2302 10008KT CAVOK
Wind
  • 100° at 8 KTS
Conditions
No significant weather
Cloud Levels
  • No significant clouds

Jul-22@
23:00 UTC

Jul-22 @ 23:00 UTC

Jul-23@
02:00 UTC

Jul-23 @ 02:00 UTC

FM222300 10014KT CAVOK

From

From Standard forecast or significant change

Wind
  • 100° at 14 KTS
Conditions
No significant weather
Cloud Levels
  • No significant clouds